createdAt,value
2023-02-03T00:01:59.903Z,1.80
2023-02-03T00:04:26.812Z,1.80
2023-02-03T00:06:53.757Z,1.80
2023-02-03T00:09:21.179Z,1.90
2023-02-03T00:11:48.171Z,1.90
2023-02-03T00:14:15.040Z,2.00
2023-02-03T00:16:41.954Z,2.00
2023-02-03T00:19:08.841Z,2.00
2023-02-03T00:21:35.715Z,1.90
2023-02-03T00:24:02.774Z,2.00
2023-02-03T00:26:29.858Z,1.90
2023-02-03T00:28:59.082Z,1.80
2023-02-03T00:31:26.058Z,1.90
2023-02-03T00:33:57.367Z,1.90
2023-02-03T00:36:25.449Z,1.80
2023-02-03T00:38:52.624Z,1.80
2023-02-03T00:41:20.543Z,1.90
2023-02-03T00:43:48.462Z,1.90
2023-02-03T00:46:16.376Z,1.90
2023-02-03T00:48:43.222Z,1.90
2023-02-03T00:51:10.132Z,1.80
2023-02-03T00:53:37.047Z,1.80
2023-02-03T00:56:04.246Z,1.60
2023-02-03T00:58:31.103Z,1.60
2023-02-03T01:00:58.068Z,1.50
2023-02-03T01:03:25.063Z,1.40
2023-02-03T01:05:52.067Z,1.50
2023-02-03T01:08:18.966Z,1.40
2023-02-03T01:10:45.820Z,1.40
2023-02-03T01:13:12.659Z,1.40
2023-02-03T01:15:46.859Z,1.40
2023-02-03T01:18:13.886Z,1.40
2023-02-03T01:20:40.882Z,1.40
2023-02-03T01:23:07.768Z,1.40
2023-02-03T01:25:36.271Z,1.30
2023-02-03T01:28:03.175Z,1.30
2023-02-03T01:30:30.297Z,1.30
2023-02-03T01:32:57.358Z,1.40
2023-02-03T01:35:24.294Z,1.50
2023-02-03T01:37:51.180Z,1.50
2023-02-03T01:40:18.966Z,1.60
2023-02-03T01:42:45.827Z,1.60
2023-02-03T01:45:13.671Z,1.50
2023-02-03T01:47:56.127Z,1.60
2023-02-03T01:50:31.366Z,1.60
2023-02-03T01:53:02.993Z,1.60
2023-02-03T01:55:34.383Z,1.40
2023-02-03T01:58:11.493Z,1.40
2023-02-03T02:00:38.334Z,1.50
2023-02-03T02:03:06.089Z,1.60
2023-02-03T02:05:35.223Z,1.60
2023-02-03T02:08:02.695Z,1.60
2023-02-03T02:10:32.568Z,1.70
2023-02-03T02:13:00.994Z,1.70
2023-02-03T02:15:35.699Z,1.60
2023-02-03T02:18:22.695Z,1.60
2023-02-03T02:21:02.759Z,1.60
2023-02-03T02:23:29.435Z,1.60
2023-02-03T02:25:58.869Z,1.60
2023-02-03T02:28:44.353Z,1.60
2023-02-03T02:31:14.215Z,1.60
2023-02-03T02:33:40.959Z,1.60
2023-02-03T02:36:21.219Z,1.50
2023-02-03T02:38:57.887Z,1.50
2023-02-03T02:41:29.334Z,1.50
2023-02-03T02:44:01.808Z,1.60
2023-02-03T02:46:34.347Z,1.60
2023-02-03T02:49:15.010Z,1.50
2023-02-03T02:51:43.963Z,1.50
2023-02-03T02:54:13.823Z,1.60
2023-02-03T02:56:40.959Z,1.30
2023-02-03T02:59:08.031Z,1.50
2023-02-03T03:01:34.843Z,1.50
2023-02-03T03:04:04.559Z,1.40
2023-02-03T03:06:42.873Z,1.50
2023-02-03T03:09:09.594Z,1.50
2023-02-03T03:11:43.397Z,1.50
2023-02-03T03:14:11.694Z,1.50
2023-02-03T03:16:39.438Z,1.40
2023-02-03T03:19:10.524Z,1.40
2023-02-03T03:21:48.352Z,1.40
2023-02-03T03:24:17.713Z,1.20
2023-02-03T03:26:47.323Z,1.30
2023-02-03T03:29:13.989Z,1.20
2023-02-03T03:31:41.343Z,1.10
2023-02-03T03:34:11.538Z,1.30
2023-02-03T03:36:42.313Z,1.30
2023-02-03T03:39:15.797Z,1.20
2023-02-03T03:41:42.600Z,1.30
2023-02-03T03:44:12.345Z,1.30
2023-02-03T03:46:59.288Z,1.30
2023-02-03T03:49:26.781Z,1.30
2023-02-03T03:51:56.511Z,1.30
2023-02-03T03:54:24.281Z,1.20
2023-02-03T03:56:58.479Z,1.10
2023-02-03T03:59:26.379Z,1.30
2023-02-03T04:01:53.913Z,1.20
2023-02-03T04:04:21.484Z,1.30
2023-02-03T04:06:48.233Z,1.20
2023-02-03T04:09:15.005Z,1.30
2023-02-03T04:12:00.414Z,1.30
2023-02-03T04:14:27.433Z,1.30
2023-02-03T04:16:54.260Z,1.40
2023-02-03T04:19:21.031Z,1.40
2023-02-03T04:21:47.770Z,1.40
2023-02-03T04:24:14.599Z,1.50
2023-02-03T04:26:41.377Z,1.50
2023-02-03T04:29:08.096Z,1.40
2023-02-03T04:31:34.966Z,1.40
2023-02-03T04:34:01.680Z,1.40
2023-02-03T04:36:28.426Z,1.40
2023-02-03T04:38:55.142Z,1.40
2023-02-03T04:41:21.913Z,1.40
2023-02-03T04:43:48.939Z,1.40
2023-02-03T04:46:15.677Z,1.40
2023-02-03T04:48:42.408Z,1.40
2023-02-03T04:51:09.582Z,1.40
2023-02-03T04:53:36.396Z,1.30
2023-02-03T04:56:03.310Z,1.30
2023-02-03T04:58:30.050Z,1.30
2023-02-03T05:00:56.863Z,1.30
2023-02-03T05:03:26.133Z,1.20
2023-02-03T05:05:53.049Z,1.30
2023-02-03T05:08:20.194Z,1.40
2023-02-03T05:10:47.017Z,1.40
2023-02-03T05:13:13.716Z,1.40
2023-02-03T05:15:40.417Z,1.40
2023-02-03T05:18:07.601Z,1.50
2023-02-03T05:20:34.278Z,1.50
2023-02-03T05:23:01.386Z,1.50
2023-02-03T05:25:28.176Z,1.50
2023-02-03T05:27:54.996Z,1.60
2023-02-03T05:30:21.728Z,1.60
2023-02-03T05:32:48.989Z,1.60
2023-02-03T05:35:15.749Z,1.60
2023-02-03T05:37:44.115Z,1.60
2023-02-03T05:40:29.985Z,1.50
2023-02-03T05:42:56.921Z,1.50
2023-02-03T05:45:23.739Z,1.50
2023-02-03T05:47:50.485Z,1.50
2023-02-03T05:50:17.311Z,1.60
2023-02-03T05:52:44.022Z,1.40
2023-02-03T05:55:10.814Z,1.30
2023-02-03T05:57:37.578Z,1.30
2023-02-03T06:00:04.573Z,1.40
2023-02-03T06:02:31.312Z,1.40
2023-02-03T06:04:58.092Z,1.50
2023-02-03T06:07:24.820Z,1.30
2023-02-03T06:09:51.644Z,1.40
2023-02-03T06:12:18.409Z,1.40
2023-02-03T06:14:45.128Z,1.20
2023-02-03T06:17:11.960Z,1.40
2023-02-03T06:19:38.797Z,1.20
2023-02-03T06:22:05.521Z,1.40
2023-02-03T06:24:32.283Z,1.40
2023-02-03T06:26:59.024Z,1.50
2023-02-03T06:29:25.756Z,1.30
2023-02-03T06:31:52.683Z,1.40
2023-02-03T06:34:19.486Z,1.40
2023-02-03T06:36:46.301Z,1.40
2023-02-03T06:39:13.048Z,1.50
2023-02-03T06:41:39.783Z,1.40
2023-02-03T06:44:06.859Z,1.40
2023-02-03T06:46:34.148Z,1.40
2023-02-03T06:49:01.033Z,1.40
2023-02-03T06:51:27.756Z,1.40
2023-02-03T06:53:54.541Z,1.30
2023-02-03T06:56:21.385Z,1.30
2023-02-03T06:58:48.088Z,1.40
2023-02-03T07:01:15.038Z,1.50
2023-02-03T07:03:41.860Z,1.50
2023-02-03T07:06:08.608Z,1.20
2023-02-03T07:08:35.427Z,1.40
2023-02-03T07:11:02.184Z,1.30
2023-02-03T07:13:29.027Z,1.40
2023-02-03T07:15:55.822Z,1.40
2023-02-03T07:21:13.436Z,1.40
2023-02-03T07:23:40.287Z,1.50
2023-02-03T07:26:07.385Z,1.50
2023-02-03T07:28:35.281Z,1.60
2023-02-03T07:31:02.514Z,1.60
2023-02-03T07:33:29.325Z,1.50
2023-02-03T07:35:56.768Z,1.40
2023-02-03T07:38:24.262Z,1.40
2023-02-03T07:40:51.740Z,1.50
2023-02-03T07:43:18.702Z,1.50
2023-02-03T07:45:45.396Z,1.60
2023-02-03T07:48:12.232Z,1.60
2023-02-03T07:50:39.595Z,1.60
2023-02-03T07:53:07.143Z,1.60
2023-02-03T07:55:34.433Z,1.60
2023-02-03T07:58:03.218Z,1.40
2023-02-03T08:00:30.428Z,1.60
2023-02-03T08:02:57.419Z,1.60
2023-02-03T08:05:24.112Z,1.50
2023-02-03T08:07:50.857Z,1.60
2023-02-03T08:10:18.071Z,1.60
2023-02-03T08:12:46.630Z,1.60
2023-02-03T08:15:13.823Z,1.60
2023-02-03T08:17:41.338Z,1.60
2023-02-03T08:20:09.497Z,1.60
2023-02-03T08:22:36.650Z,1.60
2023-02-03T08:25:04.032Z,1.60
2023-02-03T08:27:31.537Z,1.50
2023-02-03T08:29:58.682Z,1.60
2023-02-03T08:32:25.931Z,1.60
2023-02-03T08:34:55.539Z,1.70
2023-02-03T08:37:24.807Z,1.60
2023-02-03T08:39:53.128Z,1.70
2023-02-03T08:42:20.474Z,1.60
2023-02-03T08:44:48.917Z,1.70
2023-02-03T08:47:15.824Z,1.70
2023-02-03T08:49:42.798Z,1.70
2023-02-03T08:52:11.368Z,1.70
2023-02-03T08:54:38.643Z,1.70
2023-02-03T08:57:05.814Z,1.70
2023-02-03T08:59:36.111Z,1.70
2023-02-03T09:02:07.750Z,1.70
2023-02-03T09:04:34.638Z,1.70
2023-02-03T09:07:03.505Z,1.60
2023-02-03T09:09:31.065Z,1.70
2023-02-03T09:12:02.279Z,1.70
2023-02-03T09:14:29.900Z,1.70
2023-02-03T09:16:56.719Z,1.70
2023-02-03T09:19:23.549Z,1.70
2023-02-03T09:21:50.808Z,1.70
2023-02-03T09:24:18.171Z,1.60
2023-02-03T09:26:45.156Z,1.60
2023-02-03T09:29:12.371Z,1.60
2023-02-03T09:31:39.228Z,1.70
2023-02-03T09:34:06.081Z,1.70
2023-02-03T09:36:33.067Z,1.90
2023-02-03T09:38:59.907Z,1.70
2023-02-03T09:41:44.622Z,1.80
2023-02-03T09:44:11.592Z,1.90
2023-02-03T09:46:40.433Z,1.80
2023-02-03T09:49:13.378Z,1.80
2023-02-03T09:51:52.422Z,1.90
2023-02-03T09:54:26.821Z,1.90
2023-02-03T09:56:55.798Z,2.00
2023-02-03T09:59:23.098Z,2.00
2023-02-03T10:01:53.020Z,1.90
2023-02-03T10:04:29.164Z,1.90
2023-02-03T10:07:05.756Z,1.90
2023-02-03T10:09:32.537Z,1.90
2023-02-03T10:12:05.115Z,1.80
2023-02-03T10:14:50.473Z,1.80
2023-02-03T10:17:34.470Z,1.80
2023-02-03T10:20:10.082Z,1.90
2023-02-03T10:22:40.805Z,1.90
2023-02-03T10:25:15.974Z,2.10
2023-02-03T10:27:43.971Z,2.20
2023-02-03T10:30:21.727Z,2.20
2023-02-03T10:33:00.612Z,2.20
2023-02-03T10:35:32.320Z,2.20
2023-02-03T10:37:59.581Z,2.10
2023-02-03T10:40:27.456Z,2.20
2023-02-03T10:43:13.780Z,2.30
2023-02-03T10:45:40.590Z,2.30
2023-02-03T10:48:11.341Z,2.30
2023-02-03T10:50:42.375Z,2.30
2023-02-03T10:53:18.082Z,2.10
2023-02-03T10:55:45.811Z,2.10
2023-02-03T10:58:17.592Z,2.30
2023-02-03T11:00:44.766Z,2.40
2023-02-03T11:03:11.527Z,2.50
2023-02-03T11:05:38.333Z,2.50
2023-02-03T11:08:13.518Z,2.50
2023-02-03T11:10:40.935Z,2.70
2023-02-03T11:13:10.736Z,2.90
2023-02-03T11:15:37.722Z,2.90
2023-02-03T11:18:04.555Z,2.80
2023-02-03T11:20:33.597Z,2.80
2023-02-03T11:23:00.708Z,2.70
2023-02-03T11:25:32.467Z,2.60
2023-02-03T11:28:04.353Z,2.60
2023-02-03T11:30:31.381Z,2.50
2023-02-03T11:33:01.293Z,2.40
2023-02-03T11:35:29.668Z,2.30
2023-02-03T11:37:58.514Z,2.30
2023-02-03T11:40:27.817Z,2.20
2023-02-03T11:42:54.845Z,2.20
2023-02-03T11:45:26.091Z,2.30
2023-02-03T11:47:55.739Z,2.20
2023-02-03T11:50:30.079Z,2.20
2023-02-03T11:52:59.797Z,2.30
2023-02-03T11:55:45.218Z,2.20
2023-02-03T11:58:30.798Z,2.10
2023-02-03T12:01:06.932Z,1.90
2023-02-03T12:03:48.968Z,2.00
2023-02-03T12:06:15.789Z,2.10
2023-02-03T12:08:56.623Z,2.10
2023-02-03T12:11:34.872Z,2.00
2023-02-03T12:14:13.484Z,2.10
2023-02-03T12:16:46.458Z,2.10
2023-02-03T12:19:16.339Z,2.10
2023-02-03T12:21:44.772Z,1.90
2023-02-03T12:24:28.228Z,2.00
2023-02-03T12:27:13.517Z,2.20
2023-02-03T12:29:43.423Z,2.20
2023-02-03T12:32:19.499Z,2.30
2023-02-03T12:34:52.631Z,2.50
2023-02-03T12:37:22.584Z,2.60
2023-02-03T12:39:52.220Z,2.70
2023-02-03T12:42:21.383Z,2.80
2023-02-03T12:44:50.942Z,2.90
2023-02-03T12:47:17.751Z,2.90
2023-02-03T12:49:52.757Z,3.10
2023-02-03T12:52:32.282Z,3.10
2023-02-03T12:55:17.475Z,3.20
2023-02-03T12:57:47.398Z,3.10
2023-02-03T13:00:14.295Z,3.00
2023-02-03T13:03:00.573Z,2.90
2023-02-03T13:05:40.130Z,2.70
2023-02-03T13:08:12.054Z,2.70
2023-02-03T13:11:02.033Z,2.70
2023-02-03T13:13:35.288Z,2.50
2023-02-03T13:16:06.190Z,2.40
2023-02-03T13:18:35.108Z,2.10
2023-02-03T13:21:01.916Z,2.10
2023-02-03T13:23:29.006Z,2.00
2023-02-03T13:25:58.477Z,2.00
2023-02-03T13:28:34.199Z,2.20
2023-02-03T13:31:19.351Z,2.10
2023-02-03T13:33:55.950Z,2.10
2023-02-03T13:36:25.736Z,2.00
2023-02-03T13:38:58.349Z,2.00
2023-02-03T13:41:30.351Z,2.00
2023-02-03T13:43:57.725Z,1.90
2023-02-03T13:46:29.618Z,1.80
2023-02-03T13:48:58.088Z,1.80
2023-02-03T13:51:29.271Z,1.70
2023-02-03T13:54:01.199Z,1.90
2023-02-03T13:56:28.728Z,1.90
2023-02-03T13:59:24.798Z,1.80
2023-02-03T14:01:51.630Z,1.70
2023-02-03T14:04:24.972Z,1.40
2023-02-03T14:06:54.673Z,1.40
2023-02-03T14:09:24.525Z,1.30
2023-02-03T14:11:52.129Z,1.10
2023-02-03T14:14:20.794Z,1.00
2023-02-03T14:16:54.639Z,1.00
2023-02-03T14:19:21.709Z,1.00
2023-02-03T14:22:08.760Z,0.90
2023-02-03T14:24:39.087Z,1.00
2023-02-03T14:27:15.744Z,0.90
2023-02-03T14:29:42.925Z,0.80
2023-02-03T14:32:10.640Z,0.80
2023-02-03T14:34:44.456Z,0.80
2023-02-03T14:37:14.097Z,0.90
2023-02-03T14:39:58.534Z,0.80
2023-02-03T14:42:31.535Z,0.70
2023-02-03T14:44:58.224Z,0.70
2023-02-03T14:47:24.960Z,0.80
2023-02-03T14:50:00.553Z,0.90
2023-02-03T14:52:33.299Z,0.80
2023-02-03T14:55:00.038Z,0.80
2023-02-03T14:57:35.714Z,0.70
2023-02-03T15:00:27.341Z,0.70
2023-02-03T15:03:13.832Z,1.00
2023-02-03T15:05:44.628Z,1.10
2023-02-03T15:08:29.817Z,1.10
2023-02-03T15:10:56.696Z,0.90
2023-02-03T15:13:24.117Z,0.80
2023-02-03T15:15:52.824Z,0.70
2023-02-03T15:18:21.166Z,0.80
2023-02-03T15:20:53.313Z,0.90
2023-02-03T15:23:24.407Z,0.90
2023-02-03T15:25:57.372Z,0.80
2023-02-03T15:28:24.811Z,0.80
2023-02-03T15:31:06.546Z,0.70
2023-02-03T15:33:34.355Z,0.60
2023-02-03T15:36:08.987Z,0.70
2023-02-03T15:38:38.630Z,0.70
2023-02-03T15:41:07.506Z,0.60
2023-02-03T15:43:39.057Z,0.60
2023-02-03T15:46:17.767Z,0.70
2023-02-03T15:48:47.754Z,0.60
2023-02-03T15:51:14.498Z,0.60
2023-02-03T15:53:47.993Z,0.50
2023-02-03T15:56:20.607Z,0.50
2023-02-03T15:58:48.227Z,0.40
2023-02-03T16:01:18.056Z,0.30
2023-02-03T16:03:55.536Z,0.40
2023-02-03T16:06:25.323Z,0.40
2023-02-03T16:08:53.073Z,0.30
2023-02-03T16:11:38.737Z,0.70
2023-02-03T16:14:07.675Z,0.70
2023-02-03T16:16:36.804Z,0.60
2023-02-03T16:19:05.259Z,0.80
2023-02-03T16:21:33.960Z,0.90
2023-02-03T16:24:03.181Z,0.90
2023-02-03T16:26:31.175Z,0.80
2023-02-03T16:29:22.681Z,0.70
2023-02-03T16:32:08.755Z,0.90
2023-02-03T16:34:54.025Z,0.90
2023-02-03T16:37:42.098Z,0.90
2023-02-03T16:40:28.530Z,1.00
2023-02-03T16:43:13.945Z,0.90
2023-02-03T16:45:59.418Z,0.90
2023-02-03T16:48:44.753Z,1.00
2023-02-03T16:51:13.376Z,0.90
2023-02-03T16:53:40.735Z,0.90
2023-02-03T16:56:07.653Z,0.90
2023-02-03T16:58:34.377Z,0.90
2023-02-03T17:01:02.914Z,0.80
2023-02-03T17:03:29.812Z,0.80
2023-02-03T17:05:57.523Z,0.70
2023-02-03T17:08:25.746Z,0.50
2023-02-03T17:10:52.883Z,0.20
2023-02-03T17:13:20.348Z,0.10
2023-02-03T17:15:48.380Z,0.00
2023-02-03T17:18:15.520Z,0.00
2023-02-03T17:20:43.145Z,0.00
2023-02-03T17:23:10.332Z,0.00
2023-02-03T17:25:37.874Z,0.20
2023-02-03T17:28:05.802Z,0.30
2023-02-03T17:30:35.131Z,0.30
2023-02-03T17:33:02.865Z,0.30
2023-02-03T17:35:29.960Z,0.50
2023-02-03T17:37:56.924Z,0.40
2023-02-03T17:54:10.968Z,0.70
2023-02-03T17:56:38.154Z,0.60
2023-02-03T17:59:05.259Z,0.60
2023-02-03T18:01:32.441Z,0.60
2023-02-03T18:04:00.484Z,0.60
2023-02-03T18:06:28.361Z,0.70
2023-02-03T18:09:01.113Z,0.80
2023-02-03T18:11:31.113Z,0.80
2023-02-03T18:13:58.153Z,0.80
2023-02-03T18:16:26.664Z,0.70
2023-02-03T18:18:53.693Z,0.80
2023-02-03T18:21:21.388Z,0.80
2023-02-03T18:23:49.530Z,0.70
2023-02-03T18:26:16.435Z,0.80
2023-02-03T18:28:43.205Z,0.70
2023-02-03T18:31:11.780Z,0.60
2023-02-03T18:33:38.751Z,0.70
2023-02-03T18:36:06.238Z,0.80
2023-02-03T18:38:34.256Z,0.90
2023-02-03T18:41:05.156Z,0.90
2023-02-03T18:43:32.199Z,0.90
2023-02-03T18:45:59.117Z,1.00
2023-02-03T18:48:25.955Z,1.00
2023-02-03T18:50:52.642Z,1.00
2023-02-03T18:53:19.398Z,1.00
2023-02-03T18:55:46.123Z,1.10
2023-02-03T18:58:13.070Z,0.90
2023-02-03T19:00:39.912Z,0.90
2023-02-03T19:03:07.830Z,1.00
2023-02-03T19:05:34.637Z,1.00
2023-02-03T19:08:01.569Z,0.80
2023-02-03T19:10:28.638Z,0.70
2023-02-03T19:12:55.587Z,0.50
2023-02-03T19:15:22.332Z,0.60
2023-02-03T19:17:49.052Z,0.60
2023-02-03T19:20:16.197Z,0.70
2023-02-03T19:22:42.982Z,0.70
2023-02-03T19:25:09.773Z,0.70
2023-02-03T19:27:36.512Z,0.70
2023-02-03T19:30:03.534Z,0.70
2023-02-03T19:32:31.027Z,0.60
2023-02-03T19:34:57.790Z,0.60
2023-02-03T19:37:24.520Z,0.80
2023-02-03T19:39:51.601Z,0.90
2023-02-03T19:42:18.431Z,0.90
2023-02-03T19:44:45.222Z,0.80
2023-02-03T19:47:12.000Z,0.80
2023-02-03T19:49:38.837Z,0.90
2023-02-03T19:52:07.274Z,0.90
2023-02-03T19:54:34.659Z,0.90
2023-02-03T19:57:01.930Z,0.80
2023-02-03T19:59:28.665Z,0.80
2023-02-03T20:01:58.044Z,0.70
2023-02-03T20:04:27.764Z,0.50
2023-02-03T20:06:54.485Z,0.40
2023-02-03T20:09:21.288Z,0.40
2023-02-03T20:11:47.997Z,0.30
2023-02-03T20:14:16.687Z,0.20
2023-02-03T20:16:44.977Z,0.20
2023-02-03T20:19:11.694Z,0.20
2023-02-03T20:21:38.421Z,0.30
2023-02-03T20:24:05.343Z,0.30
2023-02-03T20:26:32.762Z,0.30
2023-02-03T20:28:59.628Z,0.20
2023-02-03T20:31:26.734Z,0.20
2023-02-03T20:33:53.789Z,0.30
2023-02-03T20:36:20.561Z,0.40
2023-02-03T20:38:47.930Z,0.30
2023-02-03T20:41:16.269Z,0.30
2023-02-03T20:43:43.015Z,0.30
2023-02-03T20:46:11.434Z,0.40
2023-02-03T20:48:38.286Z,0.50
2023-02-03T20:51:15.270Z,0.40
2023-02-03T20:53:42.595Z,0.40
2023-02-03T20:56:16.873Z,0.40
2023-02-03T20:58:44.157Z,0.30
2023-02-03T21:01:15.456Z,0.30
2023-02-03T21:04:01.234Z,0.40
2023-02-03T21:06:28.983Z,0.40
2023-02-03T21:08:57.589Z,0.30
2023-02-03T21:11:26.822Z,0.30
2023-02-03T21:13:53.874Z,0.30
2023-02-03T21:16:26.233Z,0.40
2023-02-03T21:18:57.012Z,0.30
2023-02-03T21:21:27.949Z,0.20
2023-02-03T21:23:55.113Z,0.00
2023-02-03T21:26:23.092Z,0.10
2023-02-03T21:28:51.684Z,0.20
2023-02-03T21:31:20.399Z,0.20
2023-02-03T21:33:47.218Z,0.20
2023-02-03T21:36:17.753Z,0.10
2023-02-03T21:38:46.351Z,0.20
2023-02-03T21:41:16.186Z,0.20
2023-02-03T21:43:43.555Z,0.10
2023-02-03T21:46:16.974Z,0.20
2023-02-03T21:48:45.551Z,0.30
2023-02-03T21:51:20.762Z,0.30
2023-02-03T21:53:51.079Z,0.30
2023-02-03T21:56:20.624Z,0.30
2023-02-03T21:58:48.583Z,0.30
2023-02-03T22:01:18.741Z,0.30
2023-02-03T22:03:47.629Z,0.00
2023-02-03T22:06:40.671Z,0.10
2023-02-03T22:09:10.928Z,0.00
2023-02-03T22:11:37.628Z,0.00
2023-02-03T22:14:04.470Z,0.00
2023-02-03T22:16:31.268Z,0.10
2023-02-03T22:18:58.106Z,0.10
2023-02-03T22:21:24.928Z,0.20
2023-02-03T22:23:51.817Z,0.30
2023-02-03T22:26:18.847Z,0.40
2023-02-03T22:28:45.830Z,0.40
2023-02-03T22:31:13.211Z,0.40
2023-02-03T22:33:40.598Z,0.30
2023-02-03T22:36:07.649Z,0.20
2023-02-03T22:38:34.811Z,0.20
2023-02-03T22:41:01.769Z,0.20
2023-02-03T22:43:30.887Z,0.10
2023-02-03T22:45:58.020Z,0.20
2023-02-03T22:48:24.870Z,0.10
2023-02-03T22:50:51.601Z,0.10
2023-02-03T22:53:18.485Z,0.10
2023-02-03T22:55:45.277Z,0.00
2023-02-03T22:58:11.992Z,0.00
2023-02-03T23:00:38.758Z,0.10
2023-02-03T23:03:06.163Z,0.20
2023-02-03T23:05:33.124Z,0.20
2023-02-03T23:08:00.244Z,0.20
2023-02-03T23:10:31.169Z,0.10
2023-02-03T23:12:58.829Z,0.20
2023-02-03T23:15:25.587Z,0.10
2023-02-03T23:17:52.364Z,0.10
2023-02-03T23:20:19.198Z,0.00
2023-02-03T23:22:45.905Z,-0.10
2023-02-03T23:25:12.719Z,-0.10
2023-02-03T23:27:39.437Z,0.00
2023-02-03T23:30:06.505Z,0.00
2023-02-03T23:32:33.926Z,-0.10
2023-02-03T23:35:19.898Z,-0.10
2023-02-03T23:37:46.720Z,-0.10
2023-02-03T23:40:13.533Z,-0.10
2023-02-03T23:42:40.354Z,-0.10
2023-02-03T23:45:08.312Z,-0.20
2023-02-03T23:47:35.087Z,-0.20
2023-02-03T23:50:01.797Z,-0.20
2023-02-03T23:52:35.619Z,-0.20
2023-02-03T23:55:03.645Z,-0.10
2023-02-03T23:57:30.407Z,-0.10
2023-02-03T23:59:57.167Z,-0.20
